Time;durP1;ratioP1;P1;durP2;ratioP2;P2;SDS_P1;SDS_P2;PMS_P1;PMS_P2;Temp;Humidity;BMP_temperature;BMP_pressure;BME280_temperature;BME280_humidity;BME280_pressure;Samples;Min_cycle;Max_cycle;Signal;HPM_P1;HPM_P2
2023/01/13 00:02:32;;;;;;;9.70;5.80;;;;;;;8.35;66.84;99846.23;110661;1258;22998;-78
2023/01/13 00:05:04;;;;;;;7.50;5.60;;;;;;;8.34;66.86;99844.89;110392;1265;21982;-77
2023/01/13 00:07:38;;;;;;;9.20;6.20;;;;;;;8.32;67.16;99840.30;110160;1265;22017;-77
2023/01/13 00:10:10;;;;;;;8.90;5.50;;;;;;;8.32;67.16;99835.27;109560;1269;22972;-77
2023/01/13 00:12:43;;;;;;;9.10;6.20;;;;;;;8.28;67.28;99838.34;109714;1269;23726;-77
2023/01/13 00:15:14;;;;;;;8.90;6.10;;;;;;;8.30;67.35;99837.93;109275;1273;22850;-77
2023/01/13 00:17:47;;;;;;;10.70;6.80;;;;;;;8.30;67.45;99839.65;109290;1273;22771;-79
2023/01/13 00:20:17;;;;;;;8.60;5.80;;;;;;;8.27;67.59;99836.84;109199;1273;22000;-78
2023/01/13 00:22:50;;;;;;;9.00;6.50;;;;;;;8.24;67.69;99833.63;109266;1268;22283;-77
2023/01/13 00:25:27;;;;;;;8.30;6.00;;;;;;;8.24;67.93;99830.16;109512;1271;24680;-76
2023/01/13 00:28:03;;;;;;;9.40;5.80;;;;;;;8.23;67.97;99825.88;109452;1268;21559;-77
2023/01/13 00:30:38;;;;;;;7.90;6.10;;;;;;;8.21;68.13;99825.77;109815;1268;22117;-77
2023/01/13 00:33:13;;;;;;;9.00;6.20;;;;;;;8.22;68.19;99826.63;110208;1263;21967;-77
2023/01/13 00:35:42;;;;;;;6.60;5.90;;;;;;;8.22;68.34;99821.05;110614;1262;22732;-77
2023/01/13 00:38:11;;;;;;;8.60;6.50;;;;;;;8.23;68.30;99816.86;110404;1263;21967;-78
2023/01/13 00:41:05;;;;;;;9.40;5.90;;;;;;;8.23;68.45;99815.11;110583;1260;23025;-77
2023/01/13 00:43:37;;;;;;;7.80;5.70;;;;;;;8.22;68.49;99816.19;110511;1258;21974;-76
2023/01/13 00:46:10;;;;;;;8.30;5.70;;;;;;;8.21;68.69;99816.91;110885;1257;24150;-78
2023/01/13 00:48:51;;;;;;;8.00;5.50;;;;;;;8.20;68.61;99819.91;110778;1258;22009;-77
2023/01/13 00:51:21;;;;;;;8.10;5.10;;;;;;;8.20;68.76;99816.10;110795;1254;22322;-77
2023/01/13 00:53:52;;;;;;;7.20;4.70;;;;;;;8.19;68.87;99818.56;110852;1258;23026;-77
2023/01/13 00:56:23;;;;;;;9.70;5.70;;;;;;;8.20;69.18;99816.64;110442;1263;22889;-78
2023/01/13 00:59:11;;;;;;;6.70;5.10;;;;;;;8.20;69.13;99815.25;110381;1263;22254;-78
2023/01/13 01:01:40;;;;;;;7.40;4.60;;;;;;;8.20;69.07;99816.10;110418;1263;23055;-77
2023/01/13 01:04:08;;;;;;;6.80;4.70;;;;;;;8.23;68.99;99815.49;110463;1263;22003;-76
2023/01/13 01:06:37;;;;;;;7.20;4.80;;;;;;;8.26;69.07;99814.17;110580;1263;21970;-77
2023/01/13 01:09:05;;;;;;;7.30;4.80;;;;;;;8.26;69.09;99812.25;110010;1267;22003;-77
2023/01/13 01:11:33;;;;;;;5.90;4.70;;;;;;;8.26;69.02;99806.35;109970;1266;21990;-78
2023/01/13 01:14:03;;;;;;;7.70;3.80;;;;;;;8.27;69.04;99807.89;109723;1264;21979;-77
2023/01/13 01:16:33;;;;;;;5.30;3.90;;;;;;;8.26;69.10;99802.89;110624;1262;23614;-78
2023/01/13 01:19:07;;;;;;;6.10;4.30;;;;;;;8.24;69.09;99803.84;110302;1265;23071;-77
2023/01/13 01:22:03;;;;;;;9.40;4.50;;;;;;;8.20;69.22;99801.02;110251;1256;21975;-77
2023/01/13 01:24:37;;;;;;;5.40;4.00;;;;;;;8.16;69.31;99794.76;110360;1265;22183;-78
2023/01/13 01:27:09;;;;;;;6.40;3.90;;;;;;;8.13;69.49;99798.31;110035;1263;21971;-78
2023/01/13 01:29:42;;;;;;;5.20;3.90;;;;;;;8.11;69.73;99796.33;110555;1263;22664;-78
2023/01/13 01:32:13;;;;;;;5.10;3.50;;;;;;;8.10;69.75;99795.14;110240;1262;21976;-77
2023/01/13 01:34:49;;;;;;;5.60;3.70;;;;;;;8.09;70.00;99790.17;110645;1261;23116;-77
2023/01/13 01:37:30;;;;;;;7.20;4.00;;;;;;;8.06;70.02;99787.48;110775;1258;21979;-76
2023/01/13 01:40:02;;;;;;;5.10;3.50;;;;;;;8.09;70.07;99787.23;110892;1257;21954;-77
2023/01/13 01:45:31;;;;;;;4.80;3.30;;;;;;;8.09;70.25;99777.33;110479;1261;22299;-77
2023/01/13 01:48:07;;;;;;;6.30;3.70;;;;;;;8.07;70.39;99773.08;110764;1261;21944;-77
2023/01/13 01:50:39;;;;;;;5.80;3.90;;;;;;;8.07;70.45;99766.85;110561;1261;23577;-76
2023/01/13 01:53:20;;;;;;;6.60;3.80;;;;;;;8.05;70.57;99763.11;110138;1254;23029;-77
2023/01/13 01:55:56;;;;;;;;;;;;;;;8.03;70.59;99760.05;110103;1267;24300;-79
2023/01/13 01:58:45;;;;;;;5.10;3.50;;;;;;;7.92;71.26;99761.67;110156;1265;21975;-77
2023/01/13 02:01:15;;;;;;;4.70;2.70;;;;;;;7.87;71.27;99754.91;110294;1267;23022;-76
2023/01/13 02:03:54;;;;;;;5.00;3.20;;;;;;;7.88;71.29;99756.61;110204;1263;23693;-77
2023/01/13 02:06:22;;;;;;;5.70;3.70;;;;;;;7.88;71.34;99754.71;110353;1251;23090;-77
2023/01/13 02:08:54;;;;;;;9.40;4.40;;;;;;;7.92;71.53;99752.50;110410;1262;21964;-76
2023/01/13 02:14:22;;;;;;;5.20;3.10;;;;;;;7.88;71.76;99754.89;110371;1264;22209;-78
2023/01/13 02:17:53;;;;;;;4.30;3.20;;;;;;;7.86;71.85;99755.81;110428;1264;22905;-78
2023/01/13 02:20:34;;;;;;;6.70;3.70;;;;;;;7.83;72.15;99752.98;110509;1263;23168;-79
2023/01/13 02:27:27;;;;;;;6.20;3.20;;;;;;;7.80;72.48;99749.12;110104;1267;22729;-77
2023/01/13 02:33:28;;;;;;;6.10;3.30;;;;;;;7.76;72.92;99743.37;110270;1266;25038;-77
2023/01/13 02:36:36;;;;;;;3.90;3.00;;;;;;;7.75;73.01;99737.67;110209;1265;23694;-77
2023/01/13 02:39:15;;;;;;;4.30;2.90;;;;;;;7.75;73.17;99739.42;110226;1265;23028;-78
2023/01/13 02:45:17;;;;;;;3.90;2.60;;;;;;;7.72;73.27;99733.79;110406;1262;22430;-79
2023/01/13 02:47:49;;;;;;;4.00;2.90;;;;;;;7.71;73.29;99732.43;110110;1265;21989;-79
2023/01/13 02:50:24;;;;;;;4.70;3.00;;;;;;;7.73;73.41;99731.00;110284;1266;22009;-78
2023/01/13 02:53:15;;;;;;;3.80;2.80;;;;;;;7.75;73.61;99724.00;110035;1264;21978;-77
2023/01/13 02:55:50;;;;;;;5.30;3.00;;;;;;;7.76;73.59;99720.30;109533;1261;22942;-79
2023/01/13 02:58:31;;;;;;;5.20;3.90;;;;;;;7.80;73.76;99722.09;110014;1267;23040;-78
2023/01/13 03:01:07;;;;;;;5.50;3.60;;;;;;;7.80;73.63;99720.87;109939;1265;21985;-78
2023/01/13 03:03:38;;;;;;;6.50;3.60;;;;;;;7.82;73.60;99722.35;110338;1264;23699;-79
2023/01/13 03:06:35;;;;;;;4.60;3.60;;;;;;;7.83;73.75;99718.15;110547;1258;21967;-79
2023/01/13 03:09:21;;;;;;;;;;;;;;;7.81;73.81;99717.36;111087;1254;21957;-77
2023/01/13 03:12:39;;;;;;;6.60;3.60;;;;;;;7.73;74.08;99720.11;110885;1257;22754;-78
2023/01/13 03:15:47;;;;;;;9.00;3.90;;;;;;;7.72;74.06;99721.67;110880;1257;24308;-78
2023/01/13 03:18:42;;;;;;;5.80;3.50;;;;;;;7.72;74.17;99722.36;110256;1266;22002;-79
2023/01/13 03:21:25;;;;;;;3.70;2.90;;;;;;;7.72;74.14;99719.27;109887;1265;23595;-78
2023/01/13 03:24:36;;;;;;;5.00;2.90;;;;;;;7.72;74.30;99717.36;109850;1265;21977;-78
2023/01/13 03:27:32;;;;;;;4.30;3.00;;;;;;;7.74;74.40;99723.52;110028;1267;23035;-78
2023/01/13 03:30:17;;;;;;;5.10;3.30;;;;;;;7.77;74.30;99729.13;110094;1266;21979;-79
2023/01/13 03:32:51;;;;;;;5.90;3.00;;;;;;;7.80;74.23;99726.94;110127;1266;21969;-78
2023/01/13 03:35:31;;;;;;;3.70;3.00;;;;;;;7.82;74.29;99727.03;110082;1266;21969;-77
2023/01/13 03:38:14;;;;;;;4.70;3.20;;;;;;;7.82;74.31;99726.85;109805;1265;24118;-78
2023/01/13 03:40:58;;;;;;;4.30;2.70;;;;;;;7.84;74.21;99732.33;110135;1267;22683;-77
2023/01/13 03:46:39;;;;;;;6.10;4.10;;;;;;;7.87;74.24;99734.84;109786;1270;21982;-80
2023/01/13 03:49:14;;;;;;;6.00;4.60;;;;;;;7.88;74.19;99736.67;109985;1268;24446;-81
2023/01/13 03:51:52;;;;;;;9.30;5.00;;;;;;;7.91;74.30;99731.90;109825;1268;22753;-78
2023/01/13 03:54:27;;;;;;;7.50;4.90;;;;;;;7.95;74.27;99735.73;109827;1268;22450;-77
2023/01/13 03:57:08;;;;;;;6.30;4.80;;;;;;;7.98;74.15;99731.63;110486;1261;23785;-78
2023/01/13 03:59:47;;;;;;;6.70;3.80;;;;;;;8.01;74.12;99731.88;110540;1261;24441;-79
2023/01/13 04:02:51;;;;;;;5.10;3.50;;;;;;;8.03;74.11;99733.90;110530;1260;21969;-77
2023/01/13 04:05:20;;;;;;;5.30;3.30;;;;;;;8.01;74.09;99732.21;110641;1261;23435;-77
2023/01/13 04:08:19;;;;;;;5.60;3.30;;;;;;;8.01;73.92;99731.35;110612;1249;21974;-79
2023/01/13 04:11:04;;;;;;;4.90;3.10;;;;;;;7.99;74.09;99729.67;110341;1258;23606;-78
2023/01/13 04:13:38;;;;;;;3.40;2.40;;;;;;;7.97;74.14;99729.40;110869;1257;22035;-77
2023/01/13 04:16:08;;;;;;;5.10;2.80;;;;;;;7.95;74.14;99728.46;110920;1258;22616;-77
2023/01/13 04:18:41;;;;;;;5.50;2.80;;;;;;;7.95;74.26;99728.30;110806;1257;22013;-78
2023/01/13 04:21:12;;;;;;;4.00;2.40;;;;;;;7.94;74.32;99724.33;111024;1257;23612;-77
2023/01/13 04:23:44;;;;;;;3.90;2.70;;;;;;;7.92;74.38;99720.60;111082;1257;22238;-77
2023/01/13 04:26:15;;;;;;;4.80;2.60;;;;;;;7.89;74.40;99717.10;110891;1258;22061;-77
2023/01/13 04:28:53;;;;;;;4.60;2.80;;;;;;;7.88;74.48;99713.66;110620;1249;23030;-77
2023/01/13 04:31:28;;;;;;;3.70;2.70;;;;;;;7.87;74.61;99712.83;110749;1258;23020;-77
2023/01/13 04:33:59;;;;;;;6.00;3.40;;;;;;;7.84;74.65;99709.80;110729;1257;23046;-78
2023/01/13 04:36:30;;;;;;;6.20;3.90;;;;;;;7.83;74.67;99706.36;110756;1257;21989;-77
2023/01/13 04:39:00;;;;;;;7.50;3.80;;;;;;;7.84;74.78;99705.50;110795;1258;23008;-78
2023/01/13 04:42:00;;;;;;;4.90;3.60;;;;;;;7.82;74.78;99705.03;111033;1258;21956;-79
2023/01/13 04:44:34;;;;;;;5.60;4.10;;;;;;;7.79;74.94;99706.01;110392;1262;21974;-77
2023/01/13 04:47:06;;;;;;;10.10;4.10;;;;;;;7.78;74.98;99704.46;110100;1264;21966;-77
2023/01/13 04:49:38;;;;;;;5.10;3.70;;;;;;;7.80;74.98;99701.80;110112;1268;22007;-77
2023/01/13 04:52:22;;;;;;;8.60;4.80;;;;;;;7.84;75.04;99701.35;109476;1271;23823;-78
2023/01/13 04:54:54;;;;;;;6.20;4.90;;;;;;;7.84;74.92;99703.41;109308;1272;21979;-76
2023/01/13 04:57:32;;;;;;;8.50;6.20;;;;;;;7.84;74.94;99704.11;109911;1270;24310;-78
2023/01/13 05:00:05;;;;;;;4.20;3.10;;;;;;;7.88;75.05;99702.54;109526;1271;23825;-77
2023/01/13 05:02:33;;;;;;;5.20;3.80;;;;;;;7.92;74.86;99702.60;109753;1268;23171;-77
2023/01/13 05:05:01;;;;;;;5.70;3.10;;;;;;;7.95;74.80;99700.20;110115;1263;23692;-78
2023/01/13 05:07:30;;;;;;;4.10;2.90;;;;;;;7.97;74.79;99698.58;110150;1263;22000;-78
2023/01/13 05:09:58;;;;;;;3.40;2.30;;;;;;;7.99;74.73;99699.56;110464;1264;21969;-78
2023/01/13 05:18:04;;;;;;;7.40;3.40;;;;;;;7.97;74.55;99693.23;110873;1257;21990;-77
2023/01/13 05:20:36;;;;;;;5.70;3.50;;;;;;;7.96;74.47;99691.86;110844;1257;23010;-77
2023/01/13 05:25:58;;;;;;;5.90;3.60;;;;;;;7.92;74.46;99690.45;110869;1258;21987;-78
2023/01/13 05:28:36;;;;;;;20.80;11.30;;;;;;;7.92;74.58;99687.34;110863;1253;23078;-77
2023/01/13 05:31:30;;;;;;;7.50;5.70;;;;;;;7.94;74.55;99686.08;110884;1244;22994;-77
2023/01/13 05:34:01;;;;;;;7.10;4.80;;;;;;;7.95;74.48;99682.53;110949;1253;23612;-78
2023/01/13 05:36:32;;;;;;;7.60;5.90;;;;;;;7.98;74.48;99689.19;110764;1258;21971;-77
2023/01/13 05:39:04;;;;;;;39.30;30.30;;;;;;;8.00;74.36;99690.33;110654;1258;23810;-78
2023/01/13 05:44:24;;;;;;;7.40;5.40;;;;;;;7.97;74.21;99690.23;110971;1258;21961;-78
2023/01/13 05:46:58;;;;;;;9.00;5.30;;;;;;;7.98;74.16;99689.02;110732;1258;22089;-78
2023/01/13 05:49:35;;;;;;;7.00;4.60;;;;;;;7.98;73.98;99691.09;110716;1258;23015;-78
2023/01/13 05:52:13;;;;;;;7.60;5.00;;;;;;;7.98;73.96;99692.98;110867;1258;22028;-79
2023/01/13 05:55:17;;;;;;;6.10;4.30;;;;;;;7.98;73.97;99693.00;110321;1263;21979;-79
2023/01/13 05:57:46;;;;;;;6.20;4.30;;;;;;;7.99;73.94;99691.92;110356;1263;22005;-78
2023/01/13 06:00:23;;;;;;;12.10;5.70;;;;;;;8.01;73.88;99693.42;110469;1263;22131;-78
2023/01/13 06:03:00;;;;;;;11.10;6.90;;;;;;;8.02;73.76;99695.97;110308;1263;21989;-79
2023/01/13 06:05:35;;;;;;;7.20;4.90;;;;;;;8.00;73.63;99694.32;110453;1262;23611;-78
2023/01/13 06:08:08;;;;;;;6.70;4.70;;;;;;;7.99;73.65;99693.45;110371;1263;21976;-78
2023/01/13 06:10:39;;;;;;;8.30;5.30;;;;;;;7.99;73.67;99693.11;110314;1263;22984;-77
2023/01/13 06:13:08;;;;;;;7.40;5.20;;;;;;;8.01;73.64;99691.84;110141;1265;23074;-78
2023/01/13 06:15:41;;;;;;;9.50;7.40;;;;;;;8.02;73.61;99690.79;110116;1267;21999;-78
2023/01/13 06:18:12;;;;;;;11.80;9.60;;;;;;;8.03;73.57;99690.40;110098;1268;22066;-76
2023/01/13 06:20:40;;;;;;;11.90;10.50;;;;;;;8.04;73.55;99691.72;109989;1268;24357;-78
2023/01/13 06:23:10;;;;;;;14.10;12.30;;;;;;;8.07;73.43;99691.98;109925;1268;24546;-78
2023/01/13 06:26:12;;;;;;;14.70;13.20;;;;;;;8.07;73.40;99695.44;110101;1267;24890;-77
2023/01/13 06:28:40;;;;;;;17.00;14.80;;;;;;;8.07;73.26;99701.18;110275;1267;23611;-77
2023/01/13 06:31:09;;;;;;;15.70;14.00;;;;;;;8.06;73.11;99701.73;110270;1264;21976;-77
2023/01/13 06:33:44;;;;;;;15.30;13.70;;;;;;;8.03;73.06;99699.59;110197;1265;23792;-78
2023/01/13 06:36:21;;;;;;;15.40;13.60;;;;;;;7.99;73.05;99700.42;110403;1265;22914;-78
2023/01/13 06:39:06;;;;;;;18.70;15.50;;;;;;;7.96;73.20;99700.53;110652;1265;23029;-77
2023/01/13 06:44:30;;;;;;;17.70;15.90;;;;;;;7.90;73.27;99701.80;109755;1269;22737;-79
2023/01/13 06:47:02;;;;;;;24.50;18.80;;;;;;;7.91;73.28;99703.50;109693;1269;21991;-78
2023/01/13 06:49:30;;;;;;;20.20;18.10;;;;;;;7.90;73.24;99702.81;109878;1269;21965;-77
2023/01/13 06:52:01;;;;;;;20.40;18.30;;;;;;;7.90;73.39;99705.28;109857;1265;23048;-78
2023/01/13 06:54:29;;;;;;;22.20;19.50;;;;;;;7.92;73.35;99709.00;110191;1265;21957;-78
2023/01/13 06:56:57;;;;;;;20.80;17.30;;;;;;;7.92;73.35;99707.09;110300;1265;23640;-80
2023/01/13 06:59:27;;;;;;;17.40;15.10;;;;;;;7.92;73.34;99708.98;110159;1259;23042;-76
2023/01/13 07:01:56;;;;;;;19.80;16.80;;;;;;;7.93;73.44;99708.45;110893;1258;21983;-81
2023/01/13 07:04:27;;;;;;;20.30;17.00;;;;;;;7.92;73.52;99709.33;110853;1258;21919;-77
2023/01/13 07:06:56;;;;;;;17.10;14.20;;;;;;;7.92;73.58;99708.64;110812;1257;22120;-78
2023/01/13 07:09:25;;;;;;;20.00;15.30;;;;;;;7.95;73.54;99710.96;110290;1262;22009;-78
2023/01/13 07:12:11;;;;;;;18.60;13.20;;;;;;;7.97;73.58;99707.96;110085;1266;21982;-77
2023/01/13 07:17:27;;;;;;;10.00;8.40;;;;;;;8.01;73.51;99710.39;110081;1267;21993;-78
2023/01/13 07:20:01;;;;;;;10.50;7.00;;;;;;;8.03;73.48;99712.40;110099;1267;23622;-78
2023/01/13 07:22:33;;;;;;;10.60;6.40;;;;;;;8.07;73.52;99715.89;110167;1267;23824;-78
2023/01/13 07:25:01;;;;;;;12.70;6.40;;;;;;;8.11;73.41;99713.48;110303;1265;21996;-78
2023/01/13 07:27:29;;;;;;;10.80;7.10;;;;;;;8.16;73.34;99715.54;110381;1262;23780;-78
2023/01/13 07:29:57;;;;;;;15.20;9.10;;;;;;;8.19;73.12;99712.99;110578;1257;22010;-78
2023/01/13 07:32:30;;;;;;;13.80;8.90;;;;;;;8.23;72.98;99709.58;110875;1247;21961;-77
2023/01/13 07:35:03;;;;;;;17.20;8.10;;;;;;;8.24;72.78;99706.91;111064;1257;23612;-78
2023/01/13 07:37:34;;;;;;;13.30;8.60;;;;;;;8.26;72.72;99707.90;110957;1257;23611;-77
2023/01/13 07:40:05;;;;;;;13.90;7.40;;;;;;;8.29;72.64;99711.59;110838;1257;21970;-78
2023/01/13 07:45:25;;;;;;;17.80;7.40;;;;;;;8.32;72.27;99708.85;111083;1257;23017;-78
2023/01/13 07:47:55;;;;;;;11.30;5.60;;;;;;;8.35;72.25;99708.55;110913;1257;22976;-77
2023/01/13 07:50:23;;;;;;;12.40;6.90;;;;;;;8.40;71.95;99714.63;110989;1257;22346;-77
2023/01/13 07:52:57;;;;;;;9.00;5.50;;;;;;;8.44;71.85;99715.54;110997;1257;21952;-76
2023/01/13 07:55:25;;;;;;;10.80;5.60;;;;;;;8.45;71.60;99718.30;110758;1257;21974;-77
2023/01/13 07:57:53;;;;;;;9.30;5.40;;;;;;;8.47;71.60;99719.09;110801;1257;21967;-77
2023/01/13 08:00:22;;;;;;;7.80;4.90;;;;;;;8.52;71.67;99721.15;110872;1257;21925;-77
2023/01/13 08:02:51;;;;;;;10.50;6.50;;;;;;;8.54;71.32;99721.40;110842;1257;22493;-80
2023/01/13 08:05:21;;;;;;;13.10;6.50;;;;;;;8.55;71.19;99716.14;110461;1252;21975;-77
2023/01/13 08:07:50;;;;;;;10.00;7.20;;;;;;;8.60;71.17;99719.95;110538;1264;23730;-78
2023/01/13 08:10:18;;;;;;;12.50;9.80;;;;;;;8.67;71.05;99716.90;110540;1263;22020;-78
2023/01/13 08:15:33;;;;;;;12.10;6.60;;;;;;;8.81;71.03;99716.50;110514;1264;23051;-77
2023/01/13 08:18:01;;;;;;;10.20;6.00;;;;;;;8.87;70.77;99716.78;110096;1267;21957;-76
2023/01/13 08:20:29;;;;;;;15.20;10.00;;;;;;;8.92;70.63;99715.89;110251;1266;21979;-76
2023/01/13 08:22:59;;;;;;;15.30;9.50;;;;;;;8.99;70.59;99720.98;110154;1263;21974;-80
2023/01/13 08:25:28;;;;;;;10.10;8.20;;;;;;;9.02;70.18;99720.18;110540;1263;21994;-79
2023/01/13 08:27:59;;;;;;;16.60;10.50;;;;;;;9.03;70.01;99721.68;109646;1268;21970;-77
2023/01/13 08:30:27;;;;;;;10.70;6.20;;;;;;;9.04;69.74;99719.05;109753;1268;22173;-77
2023/01/13 08:32:55;;;;;;;13.60;8.70;;;;;;;9.03;69.63;99722.54;110020;1268;23003;-77
2023/01/13 08:35:23;;;;;;;45.20;37.80;;;;;;;9.06;69.63;99720.86;109356;1268;23704;-77
2023/01/13 08:37:51;;;;;;;14.20;9.00;;;;;;;9.10;69.64;99723.30;109353;1268;23047;-75
2023/01/13 08:40:21;;;;;;;12.30;8.60;;;;;;;9.13;69.49;99726.14;109513;1268;21977;-75
2023/01/13 08:42:52;;;;;;;8.70;7.10;;;;;;;9.16;69.46;99723.21;110020;1268;22742;-75
2023/01/13 08:45:20;;;;;;;13.10;7.40;;;;;;;9.16;69.22;99724.08;109687;1264;23715;-75
2023/01/13 08:47:48;;;;;;;14.10;8.90;;;;;;;9.16;69.01;99722.87;109681;1269;21980;-76
2023/01/13 08:50:17;;;;;;;14.30;9.90;;;;;;;9.18;68.94;99725.58;109906;1268;21974;-75
2023/01/13 08:52:45;;;;;;;16.20;11.60;;;;;;;9.21;69.03;99724.92;110052;1263;21972;-75
2023/01/13 08:55:14;;;;;;;14.40;11.10;;;;;;;9.25;68.88;99726.14;110560;1262;21967;-76
2023/01/13 08:57:42;;;;;;;17.20;10.40;;;;;;;9.26;68.73;99727.17;110598;1263;21982;-76
2023/01/13 09:00:15;;;;;;;14.00;9.30;;;;;;;9.27;68.72;99728.67;110464;1262;22977;-75
2023/01/13 09:02:44;;;;;;;8.90;7.20;;;;;;;9.28;68.54;99731.76;110472;1263;22980;-76
2023/01/13 09:05:17;;;;;;;10.10;6.40;;;;;;;9.29;68.44;99734.66;110505;1263;22442;-78
2023/01/13 09:07:45;;;;;;;10.70;7.30;;;;;;;9.31;68.56;99735.95;110012;1268;22081;-76
2023/01/13 09:10:13;;;;;;;9.30;6.20;;;;;;;9.37;68.52;99734.33;109346;1265;23147;-75
2023/01/13 09:15:27;;;;;;;11.10;7.30;;;;;;;9.42;68.22;99733.96;110521;1262;22852;-75
2023/01/13 09:17:55;;;;;;;13.90;8.80;;;;;;;9.45;68.12;99737.98;110230;1262;23028;-75
2023/01/13 09:20:22;;;;;;;9.20;6.50;;;;;;;9.49;68.06;99732.77;110549;1262;22979;-76
2023/01/13 09:22:50;;;;;;;8.30;5.80;;;;;;;9.50;67.74;99727.36;110395;1262;23624;-75
2023/01/13 09:25:18;;;;;;;9.30;6.70;;;;;;;9.47;67.58;99723.64;110658;1257;22826;-75
2023/01/13 09:27:46;;;;;;;10.50;6.00;;;;;;;9.46;67.59;99722.13;110805;1256;21956;-75
2023/01/13 09:30:14;;;;;;;7.60;5.50;;;;;;;9.44;67.50;99719.61;111160;1256;21960;-77
2023/01/13 09:32:42;;;;;;;12.20;8.90;;;;;;;9.40;67.44;99716.13;110797;1257;23695;-77
2023/01/13 09:35:09;;;;;;;16.40;12.90;;;;;;;9.41;67.54;99712.99;110766;1256;21964;-76
2023/01/13 09:37:39;;;;;;;13.10;9.20;;;;;;;9.43;67.63;99713.08;110982;1250;21972;-75
2023/01/13 09:40:21;;;;;;;13.20;8.60;;;;;;;9.45;67.57;99712.29;111043;1256;22161;-75
2023/01/13 09:47:02;;;;;;;12.00;6.80;;;;;;;9.46;67.54;99708.91;111143;1256;21997;-75
2023/01/13 09:49:04;;;;;;;;;;;;;;;9.46;67.56;99708.92;109901;1256;1480481;-76
2023/01/13 09:51:47;;;;;;;13.40;7.00;;;;;;;9.44;67.78;99707.63;111142;1256;21956;-75
2023/01/13 09:54:52;;;;;;;8.80;6.10;;;;;;;9.51;67.75;99708.02;111039;1256;22152;-76
2023/01/13 09:57:20;;;;;;;9.80;7.50;;;;;;;9.59;67.57;99710.11;111058;1256;21970;-76
2023/01/13 09:59:48;;;;;;;8.10;6.40;;;;;;;9.65;67.28;99708.44;110854;1256;21972;-75
2023/01/13 10:02:52;;;;;;;9.40;5.20;;;;;;;9.68;67.02;99707.43;110874;1256;23113;-76
2023/01/13 10:05:49;;;;;;;10.20;7.20;;;;;;;9.66;66.80;99711.02;111139;1256;22288;-76
2023/01/13 10:08:25;;;;;;;9.10;7.80;;;;;;;9.62;66.76;99708.95;110819;1256;22027;-75
2023/01/13 10:13:13;;;;;;;11.40;6.80;;;;;;;9.60;66.75;99701.36;110864;1256;22009;-76
2023/01/13 10:13:58;;;;;;;13.70;8.10;;;;;;;9.60;66.76;99702.77;110995;1256;21991;-75
2023/01/13 10:16:56;;;;;;;12.00;8.10;;;;;;;9.60;66.70;99702.42;110823;1256;21967;-75
2023/01/13 10:19:33;;;;;;;9.50;6.80;;;;;;;9.60;66.76;99702.08;111055;1256;23047;-76
2023/01/13 10:22:44;;;;;;;11.70;7.20;;;;;;;9.60;66.73;99695.62;110838;1256;24480;-75
2023/01/13 10:25:29;;;;;;;13.90;9.30;;;;;;;9.61;66.87;99696.29;110949;1257;21966;-75
2023/01/13 10:28:08;;;;;;;15.60;10.90;;;;;;;9.61;66.81;99698.36;111122;1256;22011;-76
2023/01/13 10:30:43;;;;;;;10.40;8.60;;;;;;;9.62;66.78;99696.61;110845;1256;22184;-76
2023/01/13 10:33:27;;;;;;;14.50;9.60;;;;;;;9.65;66.91;99699.08;110886;1256;21954;-75
2023/01/13 10:36:14;;;;;;;14.40;9.80;;;;;;;9.68;66.91;99698.94;110868;1256;23791;-77
2023/01/13 10:38:46;;;;;;;15.20;10.20;;;;;;;9.64;67.06;99694.58;110880;1256;25036;-75
2023/01/13 10:41:14;;;;;;;22.10;9.80;;;;;;;9.65;67.26;99690.07;110985;1256;23035;-76
2023/01/13 10:44:05;;;;;;;15.60;9.30;;;;;;;9.68;67.27;99687.97;111125;1256;21972;-75
2023/01/13 10:46:54;;;;;;;21.10;10.50;;;;;;;9.70;67.22;99685.62;111047;1256;21979;-77
2023/01/13 10:49:35;;;;;;;18.70;11.70;;;;;;;9.72;67.33;99687.98;110923;1256;23022;-76
2023/01/13 10:52:25;;;;;;;16.40;10.10;;;;;;;9.73;67.44;99683.59;110960;1251;23004;-76
2023/01/13 10:54:54;;;;;;;14.40;7.70;;;;;;;9.75;67.52;99677.95;110743;1257;22004;-76
2023/01/13 10:57:28;;;;;;;18.60;11.20;;;;;;;9.82;67.53;99679.72;110811;1257;24304;-75
2023/01/13 10:59:57;;;;;;;16.60;10.60;;;;;;;9.86;67.49;99679.35;110836;1257;22102;-75
2023/01/13 11:02:30;;;;;;;16.60;13.50;;;;;;;9.92;67.40;99677.36;110791;1257;22072;-74
2023/01/13 11:05:23;;;;;;;17.30;12.70;;;;;;;9.96;67.28;99677.48;110768;1257;22038;-76
2023/01/13 11:07:55;;;;;;;17.30;14.70;;;;;;;9.96;67.16;99677.33;110967;1257;23691;-75
2023/01/13 11:10:32;;;;;;;17.80;14.20;;;;;;;9.96;67.03;99677.84;110970;1257;22690;-75
2023/01/13 11:13:17;;;;;;;18.90;17.00;;;;;;;9.93;66.88;99677.13;111109;1256;23743;-75
2023/01/13 11:15:52;;;;;;;28.40;24.10;;;;;;;9.92;66.99;99682.20;110869;1258;23601;-75
2023/01/13 11:19:11;;;;;;;16.60;14.90;;;;;;;9.95;67.06;99683.10;110814;1258;21980;-77
2023/01/13 11:21:53;;;;;;;14.00;10.30;;;;;;;9.93;67.01;99680.58;110833;1258;22002;-76
2023/01/13 11:24:41;;;;;;;12.20;9.10;;;;;;;9.97;67.12;99679.52;110826;1257;23585;-76
2023/01/13 11:27:21;;;;;;;15.20;11.70;;;;;;;10.02;67.08;99678.97;110924;1257;24237;-76
2023/01/13 11:30:08;;;;;;;11.70;8.80;;;;;;;10.03;66.91;99679.30;110976;1257;21971;-75
2023/01/13 11:33:12;;;;;;;12.00;8.60;;;;;;;10.02;66.91;99678.64;110609;1257;21946;-75
2023/01/13 11:35:57;;;;;;;13.50;9.20;;;;;;;10.03;66.97;99674.23;110518;1262;21973;-77
2023/01/13 11:39:10;;;;;;;14.50;9.50;;;;;;;10.05;66.91;99672.23;110390;1262;23953;-75
2023/01/13 11:42:32;;;;;;;13.50;8.00;;;;;;;10.09;66.95;99663.39;109633;1269;21980;-78
2023/01/13 11:45:20;;;;;;;16.30;7.00;;;;;;;10.14;67.16;99665.92;109145;1274;22718;-78
2023/01/13 11:47:59;;;;;;;15.20;7.20;;;;;;;10.22;67.04;99665.55;109148;1268;22816;-75
2023/01/13 11:50:55;;;;;;;13.80;8.30;;;;;;;10.29;67.10;99667.33;109271;1274;23074;-76
2023/01/13 11:53:31;;;;;;;13.70;7.20;;;;;;;10.33;66.96;99663.81;109260;1272;22453;-76
2023/01/13 11:56:29;;;;;;;8.70;6.70;;;;;;;10.39;66.91;99664.79;109645;1271;22069;-77
2023/01/13 11:59:04;;;;;;;9.40;7.70;;;;;;;10.45;66.95;99666.90;109630;1267;21976;-78
2023/01/13 12:01:54;;;;;;;9.10;7.20;;;;;;;10.51;66.71;99664.52;109647;1271;21979;-75
2023/01/13 12:04:30;;;;;;;14.30;11.30;;;;;;;10.55;66.66;99662.77;109735;1270;21989;-77
2023/01/13 12:07:19;;;;;;;7.90;5.80;;;;;;;10.60;66.47;99657.66;109351;1272;21982;-76
2023/01/13 12:10:08;;;;;;;;;;;;;;;10.60;66.23;99657.65;109569;1271;21970;-75
2023/01/13 12:13:13;;;;;;;9.20;7.10;;;;;;;10.52;66.40;99656.45;109667;1268;22451;-76
2023/01/13 12:16:22;;;;;;;11.30;8.10;;;;;;;10.48;66.09;99651.12;109385;1271;22010;-74
2023/01/13 12:19:24;;;;;;;13.00;10.10;;;;;;;10.39;65.76;99652.41;109971;1265;21983;-75
2023/01/13 12:22:20;;;;;;;10.00;7.80;;;;;;;10.30;65.76;99649.89;110798;1257;21963;-76
2023/01/13 12:25:22;;;;;;;13.10;7.40;;;;;;;10.26;66.09;99653.52;110789;1258;21982;-76
2023/01/13 12:29:01;;;;;;;8.80;6.30;;;;;;;10.22;66.06;99652.67;110790;1258;23028;-76
2023/01/13 12:31:40;;;;;;;6.80;5.70;;;;;;;10.17;66.31;99656.54;109241;1272;22839;-75
2023/01/13 12:34:50;;;;;;;12.10;7.10;;;;;;;10.16;66.34;99660.06;109546;1264;22459;-75
2023/01/13 12:37:46;;;;;;;9.60;7.00;;;;;;;10.18;66.56;99660.18;108962;1276;23618;-77
2023/01/13 12:40:50;;;;;;;12.80;8.80;;;;;;;10.24;66.70;99655.70;109129;1272;23051;-76
2023/01/13 12:46:23;;;;;;;12.60;10.30;;;;;;;10.17;66.51;99652.21;108993;1276;21989;-76
2023/01/13 12:48:58;;;;;;;14.50;11.30;;;;;;;10.11;66.64;99649.17;109004;1276;22134;-74
2023/01/13 12:51:36;;;;;;;20.50;16.20;;;;;;;10.13;66.79;99650.14;109062;1276;21971;-75
2023/01/13 12:54:36;;;;;;;19.30;13.40;;;;;;;10.16;66.90;99646.35;109141;1276;21994;-75
2023/01/13 12:57:20;;;;;;;15.60;13.90;;;;;;;10.16;67.00;99651.92;109360;1271;23051;-76
2023/01/13 12:59:59;;;;;;;29.40;16.00;;;;;;;10.14;66.98;99651.80;109567;1267;22012;-76
2023/01/13 13:02:39;;;;;;;20.00;11.50;;;;;;;10.18;67.06;99649.38;109525;1272;23609;-77
2023/01/13 13:05:38;;;;;;;18.40;10.40;;;;;;;10.19;67.05;99648.29;109404;1272;21990;-75
2023/01/13 13:08:31;;;;;;;34.00;19.80;;;;;;;10.21;67.07;99648.17;110246;1259;22949;-76
2023/01/13 13:14:54;;;;;;;22.00;13.10;;;;;;;10.10;67.13;99656.68;111029;1256;21971;-76